Energy IVy — A8UO8 — position and weather

sailwx.info

Track history (hours):
 
Tides and Currents Weather Stations Pressure Air Temp Water Temp Dewpoint Dewpoint Depression Visibility Wind Speed Wind Dir Waves Ship Positions

Energy IVy

Last reported at 2014-Jul-30 04:33 UTC. Time now 2014-Aug-01 16:05 UTC.
Position N 46°28' E 030°52'.

Length 180 m; draft 6.8 m.

Type: Cargo ship. MMSI: 636091925.

Date/timePositionNaut miles runAvg speedWind from/ knotsBaromVisibWave heightAir tempDewpointWater temp
2014-Jul-30 04:33N 46°28' E 030°52'0 0.0
2014-Jul-29 22:33N 46°28' E 030°52'0 0.1
2014-Jul-29 21:26N 46°28' E 030°52'  
2014-Jul-26 13:32N 40°58' E 028°60'10 9.5
2014-Jul-26 12:31N 40°49' E 029°02'2 2.1
2014-Jul-26 11:29N 40°47' E 029°00'0 0.4
2014-Jul-26 10:30N 40°47' E 029°00'0 0.2
2014-Jul-26 09:33N 40°48' E 029°00'0 0.1
2014-Jul-26 08:33N 40°48' E 029°00'0 0.3
2014-Jul-26 07:24N 40°47' E 029°00'0 0.3
2014-Jul-26 06:32N 40°47' E 029°01'0 0.3
2014-Jul-26 05:30N 40°47' E 029°01'0 0.3
2014-Jul-26 04:30N 40°47' E 029°01'3 3.4
2014-Jul-26 03:32N 40°50' E 029°01'5 5.2
2014-Jul-26 02:33N 40°47' E 029°07'1212.1
2014-Jul-26 01:33N 40°44' E 029°23'  
2014-Jul-23 00:10N 40°46' E 029°32'  
Track history (hours):
 
Tides and Currents Weather Stations Pressure Air Temp Water Temp Dewpoint Dewpoint Depression Visibility Wind Speed Wind Dir Waves Ship Positions

Energy IVy

Last reported at 2014-Jul-30 04:33 UTC. Time now 2014-Aug-01 16:05 UTC.
Position N 46°28' E 030°52'.

Length 180 m; draft 6.8 m.

Type: Cargo ship. MMSI: 636091925.

Date/timePositionNaut miles runAvg speedWind from/ knotsBaromVisibWave heightAir tempDewpointWater temp
2014-Jul-30 04:33N 46°28' E 030°52'0 0.0
2014-Jul-29 22:33N 46°28' E 030°52'0 0.1
2014-Jul-29 21:26N 46°28' E 030°52'  
2014-Jul-26 13:32N 40°58' E 028°60'10 9.5
2014-Jul-26 12:31N 40°49' E 029°02'2 2.1
2014-Jul-26 11:29N 40°47' E 029°00'0 0.4
2014-Jul-26 10:30N 40°47' E 029°00'0 0.2
2014-Jul-26 09:33N 40°48' E 029°00'0 0.1
2014-Jul-26 08:33N 40°48' E 029°00'0 0.3
2014-Jul-26 07:24N 40°47' E 029°00'0 0.3
2014-Jul-26 06:32N 40°47' E 029°01'0 0.3
2014-Jul-26 05:30N 40°47' E 029°01'0 0.3
2014-Jul-26 04:30N 40°47' E 029°01'3 3.4
2014-Jul-26 03:32N 40°50' E 029°01'5 5.2
2014-Jul-26 02:33N 40°47' E 029°07'1212.1
2014-Jul-26 01:33N 40°44' E 029°23'  
2014-Jul-23 00:10N 40°46' E 029°32'  

Dump ship's entire track history